createdAt,value
2023-05-14T00:03:17.119Z,101936.28
2023-05-14T00:08:19.713Z,101935.06
2023-05-14T00:13:23.525Z,101929.84
2023-05-14T00:18:26.121Z,101931.25
2023-05-14T00:23:28.750Z,101927.00
2023-05-14T00:28:32.573Z,101922.00
2023-05-14T00:33:35.094Z,101919.38
2023-05-14T00:38:37.603Z,101926.16
2023-05-14T00:43:41.461Z,101920.78
2023-05-14T00:48:44.821Z,101924.56
2023-05-14T00:53:47.926Z,101911.09
2023-05-14T00:58:51.742Z,101904.91
2023-05-14T01:03:54.908Z,101901.25
2023-05-14T01:09:04.396Z,101909.16
2023-05-14T01:14:17.847Z,101901.41
2023-05-14T01:19:29.004Z,101894.56
2023-05-14T01:24:32.875Z,101889.19
2023-05-14T01:29:39.602Z,101887.06
2023-05-14T01:34:42.699Z,101889.81
2023-05-14T01:39:47.489Z,101900.91
2023-05-14T01:44:50.205Z,101885.81
2023-05-14T01:49:52.722Z,101888.81
2023-05-14T01:54:58.322Z,101886.06
2023-05-14T02:00:00.954Z,101886.41
2023-05-14T02:05:05.515Z,101890.63
2023-05-14T02:10:11.659Z,101883.19
2023-05-14T02:15:14.218Z,101885.38
2023-05-14T02:20:17.028Z,101874.63
2023-05-14T02:25:20.856Z,101869.50
2023-05-14T02:30:23.759Z,101873.28
2023-05-14T02:35:26.571Z,101872.69
2023-05-14T02:40:30.401Z,101871.78
2023-05-14T02:45:32.887Z,101870.78
2023-05-14T02:50:35.380Z,101863.91
2023-05-14T02:55:39.206Z,101868.66
2023-05-14T03:00:41.761Z,101867.50
2023-05-14T03:05:44.617Z,101856.78
2023-05-14T03:10:48.564Z,101860.53
2023-05-14T03:15:54.668Z,101858.72
2023-05-14T03:20:57.508Z,101851.56
2023-05-14T03:26:02.029Z,101851.13
2023-05-14T03:31:04.754Z,101859.22
2023-05-14T03:36:07.618Z,101863.00
2023-05-14T03:41:11.433Z,101860.38
2023-05-14T03:46:13.884Z,101861.28
2023-05-14T03:51:16.461Z,101852.72
2023-05-14T03:56:20.606Z,101855.00
2023-05-14T04:01:23.188Z,101851.00
2023-05-14T04:06:25.715Z,101853.97
2023-05-14T04:11:29.665Z,101843.81
2023-05-14T04:16:32.153Z,101832.94
2023-05-14T04:21:34.644Z,101832.47
2023-05-14T04:26:38.526Z,101834.97
2023-05-14T04:31:41.982Z,101839.81
2023-05-14T04:36:44.489Z,101841.25
2023-05-14T04:41:48.305Z,101844.16
2023-05-14T04:46:50.801Z,101849.59
2023-05-14T04:51:53.362Z,101839.91
2023-05-14T04:56:57.193Z,101844.63
2023-05-14T05:01:59.711Z,101850.25
2023-05-14T05:07:02.205Z,101842.88
2023-05-14T05:12:07.187Z,101827.28
2023-05-14T05:17:09.687Z,101835.59
2023-05-14T05:22:12.279Z,101834.84
2023-05-14T05:27:16.523Z,101838.75
2023-05-14T05:32:19.042Z,101840.06
2023-05-14T05:37:21.591Z,101833.75
2023-05-14T05:42:25.994Z,101828.56
2023-05-14T05:47:28.578Z,101835.06
2023-05-14T05:52:31.193Z,101832.84
2023-05-14T05:57:35.019Z,101822.91
2023-05-14T06:02:37.755Z,101836.75
2023-05-14T06:07:40.430Z,101830.72
2023-05-14T06:12:44.263Z,101837.75
2023-05-14T06:17:46.916Z,101841.19
2023-05-14T06:22:49.510Z,101829.16
2023-05-14T06:27:53.340Z,101826.06
2023-05-14T06:32:55.931Z,101819.72
2023-05-14T06:37:58.450Z,101822.66
2023-05-14T06:43:02.263Z,101824.94
2023-05-14T06:48:05.811Z,101816.50
2023-05-14T06:53:08.381Z,101821.78
2023-05-14T06:58:12.189Z,101822.22
2023-05-14T07:03:14.922Z,101820.84
2023-05-14T07:08:17.427Z,101809.19
2023-05-14T07:13:21.282Z,101818.66
2023-05-14T07:18:24.256Z,101798.81
2023-05-14T07:23:26.744Z,101796.69
2023-05-14T07:28:30.633Z,101794.56
2023-05-14T07:33:33.146Z,101797.53
2023-05-14T07:38:35.853Z,101789.53
2023-05-14T07:43:40.459Z,101774.69
2023-05-14T07:48:43.059Z,101772.09
2023-05-14T07:53:45.628Z,101765.09
2023-05-14T07:58:49.433Z,101759.69
2023-05-14T08:03:51.972Z,101758.41
2023-05-14T08:08:54.730Z,101759.22
2023-05-14T08:13:58.559Z,101755.78
2023-05-14T08:19:01.157Z,101744.38
2023-05-14T08:24:03.652Z,101741.91
2023-05-14T08:29:09.301Z,101738.97
2023-05-14T08:34:13.048Z,101732.00
2023-05-14T08:39:15.551Z,101725.22
2023-05-14T08:44:21.293Z,101726.69
2023-05-14T08:49:34.348Z,101716.53
2023-05-14T08:54:36.927Z,101717.19
2023-05-14T08:59:41.145Z,101713.09
2023-05-14T09:04:44.070Z,101703.28
2023-05-14T09:09:46.968Z,101707.59
2023-05-14T09:14:51.475Z,101704.00
2023-05-14T09:19:54.344Z,101699.97
2023-05-14T09:25:04.855Z,101686.03
2023-05-14T09:30:11.320Z,101682.69
2023-05-14T09:35:17.456Z,101680.19
2023-05-14T09:40:21.925Z,101672.28
2023-05-14T09:45:26.235Z,101670.16
2023-05-14T09:50:28.757Z,101654.56
2023-05-14T09:55:32.599Z,101650.94
2023-05-14T10:00:37.177Z,101651.31
2023-05-14T10:05:41.777Z,101645.38
2023-05-14T10:10:44.294Z,101643.66
2023-05-14T10:15:50.191Z,101633.56
2023-05-14T10:20:59.020Z,101628.78
2023-05-14T10:26:02.322Z,101634.13
2023-05-14T10:31:06.239Z,101629.31
2023-05-14T10:36:12.008Z,101618.41
2023-05-14T10:41:17.751Z,101623.03
2023-05-14T10:46:21.791Z,101617.59
2023-05-14T10:51:24.655Z,101610.41
2023-05-14T10:56:27.280Z,101612.47
2023-05-14T11:01:32.868Z,101607.66
2023-05-14T11:06:38.090Z,101596.31
2023-05-14T11:11:40.937Z,101605.38
2023-05-14T11:16:45.133Z,101593.91
2023-05-14T11:21:47.705Z,101597.69
2023-05-14T11:26:50.319Z,101588.00
2023-05-14T11:31:55.617Z,101575.31
2023-05-14T11:36:58.211Z,101572.69
2023-05-14T11:42:03.671Z,101570.78
2023-05-14T11:47:08.121Z,101567.88
2023-05-14T11:52:14.045Z,101569.41
2023-05-14T11:57:19.254Z,101574.34
2023-05-14T12:02:23.551Z,101582.06
2023-05-14T12:07:30.379Z,101604.44
2023-05-14T12:12:36.841Z,101607.50
2023-05-14T12:17:40.804Z,101596.69
2023-05-14T12:22:43.540Z,101596.47
2023-05-14T12:27:46.394Z,101594.75
2023-05-14T12:32:51.877Z,101582.47
2023-05-14T12:37:54.641Z,101566.41
2023-05-14T12:42:57.270Z,101574.22
2023-05-14T12:48:01.168Z,101558.13
2023-05-14T12:53:04.444Z,101533.38
2023-05-14T12:58:06.932Z,101545.09
2023-05-14T13:03:10.809Z,101528.34
2023-05-14T13:08:14.805Z,101517.91
2023-05-14T13:13:17.360Z,101507.66
2023-05-14T13:18:21.405Z,101511.34
2023-05-14T13:23:23.956Z,101500.03
2023-05-14T13:28:26.469Z,101490.25
2023-05-14T13:33:30.279Z,101487.00
2023-05-14T13:38:32.797Z,101480.88
2023-05-14T13:43:36.151Z,101463.88
2023-05-14T13:48:40.003Z,101469.28
2023-05-14T13:53:42.473Z,101462.88
2023-05-14T13:58:45.016Z,101464.63
2023-05-14T14:03:48.840Z,101479.41
2023-05-14T14:08:51.315Z,101512.25
2023-05-14T14:13:53.948Z,101521.97
2023-05-14T14:18:58.589Z,101533.66
2023-05-14T14:24:01.278Z,101526.28
2023-05-14T14:29:03.823Z,101519.94
2023-05-14T14:34:07.697Z,101507.00
2023-05-14T14:39:10.381Z,101496.50
2023-05-14T14:44:12.881Z,101488.91
2023-05-14T14:49:16.698Z,101483.91
2023-05-14T14:54:19.215Z,101467.94
2023-05-14T14:59:21.687Z,101463.94
2023-05-14T15:04:25.492Z,101442.56
2023-05-14T15:09:28.048Z,101444.47
2023-05-14T15:14:30.530Z,101441.38
2023-05-14T15:19:34.365Z,101453.56
2023-05-14T15:24:36.870Z,101450.75
2023-05-14T15:29:39.333Z,101443.66
2023-05-14T15:34:43.131Z,101435.84
2023-05-14T15:39:45.717Z,101430.44
2023-05-14T15:44:48.341Z,101417.06
2023-05-14T15:49:52.163Z,101413.53
2023-05-14T15:54:56.066Z,101408.25
2023-05-14T15:59:58.614Z,101404.91
2023-05-14T16:05:02.457Z,101395.84
2023-05-14T16:10:05.935Z,101393.06
2023-05-14T16:15:09.584Z,101391.00
2023-05-14T16:20:13.894Z,101387.09
2023-05-14T16:25:18.544Z,101385.03
2023-05-14T16:30:21.099Z,101386.50
2023-05-14T16:35:25.007Z,101381.78
2023-05-14T16:40:27.513Z,101379.84
2023-05-14T16:45:30.041Z,101369.16
2023-05-14T16:50:33.910Z,101361.19
2023-05-14T16:55:36.413Z,101363.09
2023-05-14T17:00:39.375Z,101363.97
2023-05-14T17:05:43.396Z,101358.56
2023-05-14T17:10:45.878Z,101351.16
2023-05-14T17:15:48.410Z,101353.63
2023-05-14T17:20:52.366Z,101349.06
2023-05-14T17:25:56.570Z,101348.16
2023-05-14T17:30:59.164Z,101349.66
2023-05-14T17:36:03.117Z,101347.59
2023-05-14T17:41:05.673Z,101346.66
2023-05-14T17:46:08.353Z,101338.22
2023-05-14T17:51:12.181Z,101335.09
2023-05-14T17:56:17.078Z,101321.53
2023-05-14T18:01:19.592Z,101322.25
2023-05-14T18:06:23.541Z,101323.97
2023-05-14T18:11:26.202Z,101325.81
2023-05-14T18:16:29.212Z,101322.81
2023-05-14T18:21:33.324Z,101323.50
2023-05-14T18:26:35.892Z,101313.66
2023-05-14T18:31:38.411Z,101317.94
2023-05-14T18:36:42.305Z,101319.53
2023-05-14T18:41:44.842Z,101312.25
2023-05-14T18:46:47.501Z,101320.09
2023-05-14T18:51:51.464Z,101320.72
2023-05-14T18:56:53.971Z,101326.56
2023-05-14T19:01:56.630Z,101324.34
2023-05-14T19:07:00.685Z,101330.91
2023-05-14T19:12:03.233Z,101329.94
2023-05-14T19:17:06.164Z,101332.41
2023-05-14T19:22:10.038Z,101326.69
2023-05-14T19:27:16.074Z,101321.03
2023-05-14T19:32:18.621Z,101318.75
2023-05-14T19:37:22.507Z,101332.59
2023-05-14T19:42:25.261Z,101321.91
2023-05-14T19:47:28.534Z,101324.63
2023-05-14T19:52:32.579Z,101319.13
2023-05-14T19:57:35.079Z,101318.00
2023-05-14T20:02:37.764Z,101319.63
2023-05-14T20:07:42.545Z,101304.28
2023-05-14T20:12:45.092Z,101310.00
2023-05-14T20:17:47.687Z,101312.25
2023-05-14T20:22:51.739Z,101305.66
2023-05-14T20:27:54.266Z,101304.38
2023-05-14T20:32:56.923Z,101297.13
2023-05-14T20:38:02.024Z,101296.88
2023-05-14T20:43:04.520Z,101290.44
2023-05-14T20:48:09.951Z,101281.63
2023-05-14T20:53:13.987Z,101278.25
2023-05-14T20:58:16.478Z,101273.63
2023-05-14T21:03:19.208Z,101265.38
2023-05-14T21:08:23.259Z,101265.56
2023-05-14T21:13:25.811Z,101266.22
2023-05-14T21:18:30.780Z,101258.00
2023-05-14T21:23:35.168Z,101251.69
2023-05-14T21:28:37.658Z,101242.84
2023-05-14T21:33:40.810Z,101236.59
2023-05-14T21:38:44.704Z,101240.97
2023-05-14T21:43:47.202Z,101231.53
2023-05-14T21:48:49.837Z,101235.75
2023-05-14T21:53:53.706Z,101229.94
2023-05-14T21:58:57.001Z,101232.41
2023-05-14T22:03:59.612Z,101223.66
2023-05-14T22:09:03.678Z,101226.19
2023-05-14T22:14:06.243Z,101218.94
2023-05-14T22:19:08.882Z,101210.81
2023-05-14T22:24:12.801Z,101207.00
2023-05-14T22:29:15.273Z,101197.19
2023-05-14T22:34:17.758Z,101184.13
2023-05-14T22:39:21.582Z,101187.84
2023-05-14T22:44:24.454Z,101181.84
2023-05-14T22:49:26.929Z,101182.75
2023-05-14T22:54:30.755Z,101178.19
2023-05-14T22:59:33.345Z,101177.91
2023-05-14T23:04:36.060Z,101167.00
2023-05-14T23:09:39.993Z,101166.66
2023-05-14T23:14:42.468Z,101163.56
2023-05-14T23:19:45.030Z,101154.31
2023-05-14T23:24:48.875Z,101152.13
2023-05-14T23:29:51.408Z,101151.59
2023-05-14T23:34:55.562Z,101133.47
2023-05-14T23:39:59.430Z,101132.22
2023-05-14T23:45:01.930Z,101127.31
2023-05-14T23:50:04.812Z,101123.16
2023-05-14T23:55:09.625Z,101110.09
